sensor_id;sensor_type;location;lat;lon;timestamp;P1;durP1;ratioP1;P2;durP2;ratioP2
70505;SDS011;58032;49.820;6.274;2023-02-28T00:01:22;1.10;;;0.20;;
70505;SDS011;58032;49.820;6.274;2023-02-28T00:03:49;0.73;;;0.10;;
70505;SDS011;58032;49.820;6.274;2023-02-28T00:06:17;2.85;;;0.22;;
70505;SDS011;58032;49.820;6.274;2023-02-28T00:08:43;1.15;;;0.20;;
70505;SDS011;58032;49.820;6.274;2023-02-28T00:11:11;1.70;;;0.30;;
70505;SDS011;58032;49.820;6.274;2023-02-28T00:13:41;1.70;;;0.30;;
70505;SDS011;58032;49.820;6.274;2023-02-28T00:16:11;5.33;;;1.20;;
70505;SDS011;58032;49.820;6.274;2023-02-28T00:18:40;2.80;;;0.40;;
70505;SDS011;58032;49.820;6.274;2023-02-28T00:21:07;3.15;;;0.20;;
70505;SDS011;58032;49.820;6.274;2023-02-28T00:23:34;1.55;;;0.40;;
70505;SDS011;58032;49.820;6.274;2023-02-28T00:26:01;2.67;;;0.60;;
70505;SDS011;58032;49.820;6.274;2023-02-28T00:28:28;1.40;;;0.20;;
70505;SDS011;58032;49.820;6.274;2023-02-28T00:30:58;1.88;;;0.20;;
70505;SDS011;58032;49.820;6.274;2023-02-28T00:33:28;2.25;;;0.40;;
70505;SDS011;58032;49.820;6.274;2023-02-28T00:36:05;1.70;;;0.30;;
70505;SDS011;58032;49.820;6.274;2023-02-28T00:38:35;2.47;;;0.32;;
70505;SDS011;58032;49.820;6.274;2023-02-28T00:41:02;5.53;;;0.77;;
70505;SDS011;58032;49.820;6.274;2023-02-28T00:43:34;1.70;;;0.30;;
70505;SDS011;58032;49.820;6.274;2023-02-28T00:46:02;0.75;;;0.10;;
70505;SDS011;58032;49.820;6.274;2023-02-28T00:48:30;1.10;;;0.20;;
70505;SDS011;58032;49.820;6.274;2023-02-28T00:50:58;0.93;;;0.10;;
70505;SDS011;58032;49.820;6.274;2023-02-28T00:53:24;1.57;;;0.50;;
70505;SDS011;58032;49.820;6.274;2023-02-28T00:55:52;1.45;;;0.25;;
70505;SDS011;58032;49.820;6.274;2023-02-28T00:58:19;1.63;;;0.40;;
70505;SDS011;58032;49.820;6.274;2023-02-28T01:00:46;1.08;;;0.15;;
70505;SDS011;58032;49.820;6.274;2023-02-28T01:03:16;1.17;;;0.17;;
70505;SDS011;58032;49.820;6.274;2023-02-28T01:05:44;1.70;;;0.40;;
70505;SDS011;58032;49.820;6.274;2023-02-28T01:08:12;1.52;;;0.30;;
70505;SDS011;58032;49.820;6.274;2023-02-28T01:10:40;2.53;;;0.52;;
70505;SDS011;58032;49.820;6.274;2023-02-28T01:13:07;2.60;;;0.57;;
70505;SDS011;58032;49.820;6.274;2023-02-28T01:15:36;2.13;;;0.32;;
70505;SDS011;58032;49.820;6.274;2023-02-28T01:18:04;2.50;;;0.47;;
70505;SDS011;58032;49.820;6.274;2023-02-28T01:20:31;2.03;;;0.57;;
70505;SDS011;58032;49.820;6.274;2023-02-28T01:22:57;2.10;;;0.50;;
70505;SDS011;58032;49.820;6.274;2023-02-28T01:25:24;2.35;;;0.50;;
70505;SDS011;58032;49.820;6.274;2023-02-28T01:27:51;2.70;;;0.70;;
70505;SDS011;58032;49.820;6.274;2023-02-28T01:30:18;2.73;;;0.53;;
70505;SDS011;58032;49.820;6.274;2023-02-28T01:32:46;2.00;;;0.50;;
70505;SDS011;58032;49.820;6.274;2023-02-28T01:35:13;2.33;;;0.60;;
70505;SDS011;58032;49.820;6.274;2023-02-28T01:37:40;2.47;;;0.52;;
70505;SDS011;58032;49.820;6.274;2023-02-28T01:40:07;2.80;;;0.63;;
70505;SDS011;58032;49.820;6.274;2023-02-28T01:42:34;1.40;;;0.20;;
70505;SDS011;58032;49.820;6.274;2023-02-28T01:47:50;2.75;;;0.70;;
70505;SDS011;58032;49.820;6.274;2023-02-28T01:50:20;3.63;;;0.60;;
70505;SDS011;58032;49.820;6.274;2023-02-28T01:52:51;6.53;;;0.50;;
70505;SDS011;58032;49.820;6.274;2023-02-28T01:55:22;2.97;;;0.53;;
70505;SDS011;58032;49.820;6.274;2023-02-28T01:57:58;1.70;;;0.20;;
70505;SDS011;58032;49.820;6.274;2023-02-28T02:00:29;2.42;;;0.50;;
70505;SDS011;58032;49.820;6.274;2023-02-28T02:02:57;1.90;;;0.38;;
70505;SDS011;58032;49.820;6.274;2023-02-28T02:05:28;1.52;;;0.35;;
70505;SDS011;58032;49.820;6.274;2023-02-28T02:08:00;1.77;;;0.23;;
70505;SDS011;58032;49.820;6.274;2023-02-28T02:10:32;1.08;;;0.25;;
70505;SDS011;58032;49.820;6.274;2023-02-28T02:37:52;1.85;;;0.45;;
70505;SDS011;58032;49.820;6.274;2023-02-28T02:43:28;2.75;;;0.63;;
70505;SDS011;58032;49.820;6.274;2023-02-28T02:46:06;2.80;;;0.45;;
70505;SDS011;58032;49.820;6.274;2023-02-28T02:48:38;1.90;;;0.33;;
70505;SDS011;58032;49.820;6.274;2023-02-28T02:51:13;2.08;;;0.43;;
70505;SDS011;58032;49.820;6.274;2023-02-28T02:53:54;2.13;;;0.43;;
70505;SDS011;58032;49.820;6.274;2023-02-28T02:56:27;3.30;;;0.82;;
70505;SDS011;58032;49.820;6.274;2023-02-28T02:59:00;2.35;;;0.40;;
70505;SDS011;58032;49.820;6.274;2023-02-28T03:01:31;2.17;;;0.53;;
70505;SDS011;58032;49.820;6.274;2023-02-28T03:04:02;4.15;;;1.10;;
70505;SDS011;58032;49.820;6.274;2023-02-28T03:06:31;4.55;;;1.42;;
70505;SDS011;58032;49.820;6.274;2023-02-28T03:08:59;3.90;;;0.77;;
70505;SDS011;58032;49.820;6.274;2023-02-28T03:11:26;3.03;;;0.60;;
70505;SDS011;58032;49.820;6.274;2023-02-28T03:19:03;3.53;;;0.80;;
70505;SDS011;58032;49.820;6.274;2023-02-28T03:27:09;3.17;;;1.07;;
70505;SDS011;58032;49.820;6.274;2023-02-28T03:29:50;2.92;;;0.68;;
70505;SDS011;58032;49.820;6.274;2023-02-28T03:32:33;2.90;;;0.80;;
70505;SDS011;58032;49.820;6.274;2023-02-28T03:37:36;3.35;;;1.13;;
70505;SDS011;58032;49.820;6.274;2023-02-28T03:40:11;2.90;;;0.80;;
70505;SDS011;58032;49.820;6.274;2023-02-28T03:42:44;3.50;;;0.80;;
70505;SDS011;58032;49.820;6.274;2023-02-28T03:45:17;4.88;;;2.20;;
70505;SDS011;58032;49.820;6.274;2023-02-28T03:47:52;6.70;;;2.38;;
70505;SDS011;58032;49.820;6.274;2023-02-28T03:50:31;4.22;;;1.10;;
70505;SDS011;58032;49.820;6.274;2023-02-28T03:53:06;6.20;;;1.93;;
70505;SDS011;58032;49.820;6.274;2023-02-28T03:55:59;6.07;;;2.13;;
70505;SDS011;58032;49.820;6.274;2023-02-28T03:58:37;4.38;;;1.73;;
70505;SDS011;58032;49.820;6.274;2023-02-28T04:01:24;5.30;;;1.98;;
70505;SDS011;58032;49.820;6.274;2023-02-28T04:03:53;4.45;;;1.90;;
70505;SDS011;58032;49.820;6.274;2023-02-28T04:06:20;4.20;;;1.80;;
70505;SDS011;58032;49.820;6.274;2023-02-28T04:08:48;6.13;;;2.00;;
70505;SDS011;58032;49.820;6.274;2023-02-28T04:13:46;8.60;;;2.08;;
70505;SDS011;58032;49.820;6.274;2023-02-28T04:16:13;6.22;;;2.15;;
70505;SDS011;58032;49.820;6.274;2023-02-28T04:18:57;3.80;;;1.27;;
70505;SDS011;58032;49.820;6.274;2023-02-28T04:21:29;5.25;;;1.90;;
70505;SDS011;58032;49.820;6.274;2023-02-28T04:23:56;4.93;;;1.23;;
70505;SDS011;58032;49.820;6.274;2023-02-28T04:26:30;3.20;;;1.15;;
70505;SDS011;58032;49.820;6.274;2023-02-28T04:28:58;3.13;;;1.00;;
70505;SDS011;58032;49.820;6.274;2023-02-28T04:31:26;2.97;;;0.80;;
70505;SDS011;58032;49.820;6.274;2023-02-28T04:33:54;3.45;;;1.10;;
70505;SDS011;58032;49.820;6.274;2023-02-28T04:36:20;5.55;;;2.33;;
70505;SDS011;58032;49.820;6.274;2023-02-28T04:38:49;6.22;;;1.63;;
70505;SDS011;58032;49.820;6.274;2023-02-28T04:41:16;4.75;;;1.38;;
70505;SDS011;58032;49.820;6.274;2023-02-28T04:43:43;4.20;;;1.77;;
70505;SDS011;58032;49.820;6.274;2023-02-28T04:46:10;4.25;;;1.33;;
70505;SDS011;58032;49.820;6.274;2023-02-28T04:48:38;4.82;;;1.60;;
70505;SDS011;58032;49.820;6.274;2023-02-28T04:51:07;4.28;;;1.25;;
70505;SDS011;58032;49.820;6.274;2023-02-28T04:53:36;3.88;;;1.30;;
70505;SDS011;58032;49.820;6.274;2023-02-28T04:56:05;5.00;;;1.60;;
70505;SDS011;58032;49.820;6.274;2023-02-28T04:58:33;8.48;;;3.35;;
70505;SDS011;58032;49.820;6.274;2023-02-28T05:01:02;5.50;;;2.55;;
70505;SDS011;58032;49.820;6.274;2023-02-28T05:03:39;5.70;;;2.75;;
70505;SDS011;58032;49.820;6.274;2023-02-28T05:06:09;3.25;;;1.42;;
70505;SDS011;58032;49.820;6.274;2023-02-28T05:08:37;6.30;;;2.63;;
70505;SDS011;58032;49.820;6.274;2023-02-28T05:11:22;5.57;;;2.58;;
70505;SDS011;58032;49.820;6.274;2023-02-28T05:13:51;6.03;;;1.90;;
70505;SDS011;58032;49.820;6.274;2023-02-28T05:16:19;4.85;;;1.95;;
70505;SDS011;58032;49.820;6.274;2023-02-28T05:18:46;5.45;;;2.15;;
70505;SDS011;58032;49.820;6.274;2023-02-28T05:21:23;6.83;;;3.20;;
70505;SDS011;58032;49.820;6.274;2023-02-28T05:23:53;5.20;;;2.53;;
70505;SDS011;58032;49.820;6.274;2023-02-28T05:26:20;5.60;;;1.85;;
70505;SDS011;58032;49.820;6.274;2023-02-28T05:28:47;3.42;;;1.60;;
70505;SDS011;58032;49.820;6.274;2023-02-28T05:31:13;7.05;;;2.35;;
70505;SDS011;58032;49.820;6.274;2023-02-28T05:33:40;3.40;;;1.37;;
70505;SDS011;58032;49.820;6.274;2023-02-28T05:36:07;7.63;;;3.28;;
70505;SDS011;58032;49.820;6.274;2023-02-28T05:38:34;5.13;;;1.52;;
70505;SDS011;58032;49.820;6.274;2023-02-28T05:41:04;6.28;;;2.63;;
70505;SDS011;58032;49.820;6.274;2023-02-28T05:43:33;6.95;;;2.00;;
70505;SDS011;58032;49.820;6.274;2023-02-28T05:46:02;8.07;;;3.10;;
70505;SDS011;58032;49.820;6.274;2023-02-28T05:48:33;7.57;;;3.08;;
70505;SDS011;58032;49.820;6.274;2023-02-28T05:51:01;5.72;;;2.15;;
70505;SDS011;58032;49.820;6.274;2023-02-28T05:53:29;3.42;;;1.25;;
70505;SDS011;58032;49.820;6.274;2023-02-28T05:55:55;8.48;;;2.50;;
70505;SDS011;58032;49.820;6.274;2023-02-28T05:58:23;5.07;;;2.40;;
70505;SDS011;58032;49.820;6.274;2023-02-28T06:00:51;4.82;;;1.90;;
70505;SDS011;58032;49.820;6.274;2023-02-28T06:03:18;5.10;;;1.65;;
70505;SDS011;58032;49.820;6.274;2023-02-28T06:05:45;4.50;;;1.75;;
70505;SDS011;58032;49.820;6.274;2023-02-28T06:08:12;9.93;;;2.42;;
70505;SDS011;58032;49.820;6.274;2023-02-28T06:10:39;7.20;;;2.63;;
70505;SDS011;58032;49.820;6.274;2023-02-28T06:13:06;7.88;;;3.58;;
70505;SDS011;58032;49.820;6.274;2023-02-28T06:15:33;9.07;;;3.35;;
70505;SDS011;58032;49.820;6.274;2023-02-28T06:18:00;5.78;;;2.00;;
70505;SDS011;58032;49.820;6.274;2023-02-28T06:20:27;5.03;;;1.63;;
70505;SDS011;58032;49.820;6.274;2023-02-28T06:22:57;2.97;;;0.90;;
70505;SDS011;58032;49.820;6.274;2023-02-28T06:25:25;5.95;;;2.75;;
70505;SDS011;58032;49.820;6.274;2023-02-28T06:27:54;8.35;;;2.88;;
70505;SDS011;58032;49.820;6.274;2023-02-28T06:30:21;4.45;;;2.13;;
70505;SDS011;58032;49.820;6.274;2023-02-28T06:32:51;7.05;;;2.28;;
70505;SDS011;58032;49.820;6.274;2023-02-28T06:35:19;10.13;;;4.33;;
70505;SDS011;58032;49.820;6.274;2023-02-28T06:37:46;4.25;;;1.52;;
70505;SDS011;58032;49.820;6.274;2023-02-28T06:40:13;3.20;;;1.00;;
70505;SDS011;58032;49.820;6.274;2023-02-28T06:42:41;3.22;;;1.00;;
70505;SDS011;58032;49.820;6.274;2023-02-28T06:45:08;4.93;;;1.58;;
70505;SDS011;58032;49.820;6.274;2023-02-28T06:47:39;2.80;;;1.17;;
70505;SDS011;58032;49.820;6.274;2023-02-28T06:50:08;4.97;;;1.83;;
70505;SDS011;58032;49.820;6.274;2023-02-28T06:52:36;5.68;;;1.92;;
70505;SDS011;58032;49.820;6.274;2023-02-28T06:55:04;3.80;;;1.48;;
70505;SDS011;58032;49.820;6.274;2023-02-28T06:57:33;4.78;;;1.45;;
70505;SDS011;58032;49.820;6.274;2023-02-28T07:00:04;5.57;;;2.10;;
70505;SDS011;58032;49.820;6.274;2023-02-28T07:02:34;4.50;;;1.50;;
70505;SDS011;58032;49.820;6.274;2023-02-28T07:05:03;5.10;;;1.95;;
70505;SDS011;58032;49.820;6.274;2023-02-28T07:07:31;4.65;;;2.03;;
70505;SDS011;58032;49.820;6.274;2023-02-28T07:09:58;5.95;;;2.28;;
70505;SDS011;58032;49.820;6.274;2023-02-28T07:12:25;4.73;;;2.30;;
70505;SDS011;58032;49.820;6.274;2023-02-28T07:14:52;5.32;;;1.63;;
70505;SDS011;58032;49.820;6.274;2023-02-28T07:17:20;2.80;;;0.98;;
70505;SDS011;58032;49.820;6.274;2023-02-28T07:19:47;4.57;;;1.63;;
70505;SDS011;58032;49.820;6.274;2023-02-28T07:22:14;3.55;;;1.10;;
70505;SDS011;58032;49.820;6.274;2023-02-28T07:24:41;3.97;;;0.60;;
70505;SDS011;58032;49.820;6.274;2023-02-28T07:27:08;4.70;;;1.90;;
70505;SDS011;58032;49.820;6.274;2023-02-28T07:29:35;5.88;;;1.92;;
70505;SDS011;58032;49.820;6.274;2023-02-28T07:32:02;4.60;;;2.05;;
70505;SDS011;58032;49.820;6.274;2023-02-28T07:34:29;3.58;;;1.42;;
70505;SDS011;58032;49.820;6.274;2023-02-28T07:36:55;4.37;;;1.50;;
70505;SDS011;58032;49.820;6.274;2023-02-28T07:39:22;4.18;;;1.52;;
70505;SDS011;58032;49.820;6.274;2023-02-28T07:41:49;3.63;;;1.42;;
70505;SDS011;58032;49.820;6.274;2023-02-28T07:44:16;4.00;;;1.48;;
70505;SDS011;58032;49.820;6.274;2023-02-28T07:46:43;5.65;;;2.78;;
70505;SDS011;58032;49.820;6.274;2023-02-28T07:49:10;5.17;;;2.07;;
70505;SDS011;58032;49.820;6.274;2023-02-28T07:51:36;2.92;;;1.02;;
70505;SDS011;58032;49.820;6.274;2023-02-28T07:54:03;4.50;;;1.30;;
70505;SDS011;58032;49.820;6.274;2023-02-28T07:56:30;4.43;;;1.50;;
70505;SDS011;58032;49.820;6.274;2023-02-28T07:58:58;2.88;;;1.05;;
70505;SDS011;58032;49.820;6.274;2023-02-28T08:01:24;5.10;;;1.80;;
70505;SDS011;58032;49.820;6.274;2023-02-28T08:03:51;5.65;;;2.03;;
70505;SDS011;58032;49.820;6.274;2023-02-28T08:06:19;3.85;;;1.77;;
70505;SDS011;58032;49.820;6.274;2023-02-28T08:08:48;4.75;;;1.63;;
70505;SDS011;58032;49.820;6.274;2023-02-28T08:11:16;4.93;;;1.27;;
70505;SDS011;58032;49.820;6.274;2023-02-28T08:13:43;4.67;;;1.90;;
70505;SDS011;58032;49.820;6.274;2023-02-28T08:16:11;4.07;;;1.42;;
70505;SDS011;58032;49.820;6.274;2023-02-28T08:18:49;4.13;;;1.25;;
70505;SDS011;58032;49.820;6.274;2023-02-28T08:21:17;5.30;;;2.38;;
70505;SDS011;58032;49.820;6.274;2023-02-28T08:23:48;3.90;;;1.42;;
70505;SDS011;58032;49.820;6.274;2023-02-28T08:26:19;3.43;;;1.37;;
70505;SDS011;58032;49.820;6.274;2023-02-28T08:28:46;4.68;;;1.67;;
70505;SDS011;58032;49.820;6.274;2023-02-28T08:31:13;4.18;;;1.70;;
70505;SDS011;58032;49.820;6.274;2023-02-28T08:33:42;4.15;;;1.40;;
70505;SDS011;58032;49.820;6.274;2023-02-28T08:36:11;3.47;;;1.60;;
70505;SDS011;58032;49.820;6.274;2023-02-28T08:38:39;4.63;;;2.43;;
70505;SDS011;58032;49.820;6.274;2023-02-28T08:41:10;4.55;;;1.45;;
70505;SDS011;58032;49.820;6.274;2023-02-28T08:43:38;5.57;;;1.90;;
70505;SDS011;58032;49.820;6.274;2023-02-28T08:46:06;4.75;;;1.70;;
70505;SDS011;58032;49.820;6.274;2023-02-28T08:48:34;6.55;;;2.28;;
70505;SDS011;58032;49.820;6.274;2023-02-28T08:51:05;5.27;;;2.10;;
70505;SDS011;58032;49.820;6.274;2023-02-28T08:53:45;5.38;;;2.30;;
70505;SDS011;58032;49.820;6.274;2023-02-28T08:56:12;6.85;;;2.10;;
70505;SDS011;58032;49.820;6.274;2023-02-28T08:58:40;3.90;;;1.40;;
70505;SDS011;58032;49.820;6.274;2023-02-28T09:01:08;4.28;;;1.25;;
70505;SDS011;58032;49.820;6.274;2023-02-28T09:03:36;4.23;;;1.63;;
70505;SDS011;58032;49.820;6.274;2023-02-28T09:06:03;3.85;;;1.20;;
70505;SDS011;58032;49.820;6.274;2023-02-28T09:08:31;2.67;;;1.27;;
70505;SDS011;58032;49.820;6.274;2023-02-28T09:10:58;4.53;;;1.38;;
70505;SDS011;58032;49.820;6.274;2023-02-28T09:13:27;2.90;;;1.00;;
70505;SDS011;58032;49.820;6.274;2023-02-28T09:15:54;3.40;;;1.33;;
70505;SDS011;58032;49.820;6.274;2023-02-28T09:18:27;4.00;;;1.63;;
70505;SDS011;58032;49.820;6.274;2023-02-28T09:20:54;4.57;;;2.00;;
70505;SDS011;58032;49.820;6.274;2023-02-28T09:23:21;5.05;;;1.83;;
70505;SDS011;58032;49.820;6.274;2023-02-28T09:25:49;3.27;;;1.40;;
70505;SDS011;58032;49.820;6.274;2023-02-28T09:28:18;9.75;;;1.52;;
70505;SDS011;58032;49.820;6.274;2023-02-28T09:30:47;3.97;;;1.25;;
70505;SDS011;58032;49.820;6.274;2023-02-28T09:33:16;4.60;;;1.15;;
70505;SDS011;58032;49.820;6.274;2023-02-28T09:35:43;3.58;;;1.35;;
70505;SDS011;58032;49.820;6.274;2023-02-28T09:41:00;4.75;;;1.60;;
70505;SDS011;58032;49.820;6.274;2023-02-28T09:43:31;3.20;;;1.02;;
70505;SDS011;58032;49.820;6.274;2023-02-28T09:48:47;3.78;;;1.15;;
70505;SDS011;58032;49.820;6.274;2023-02-28T09:51:27;2.63;;;1.00;;
70505;SDS011;58032;49.820;6.274;2023-02-28T09:53:55;4.85;;;1.67;;
70505;SDS011;58032;49.820;6.274;2023-02-28T09:56:32;4.00;;;1.77;;
70505;SDS011;58032;49.820;6.274;2023-02-28T10:10:10;3.95;;;1.40;;
70505;SDS011;58032;49.820;6.274;2023-02-28T10:12:56;4.18;;;1.45;;
70505;SDS011;58032;49.820;6.274;2023-02-28T10:15:27;3.97;;;1.27;;
70505;SDS011;58032;49.820;6.274;2023-02-28T10:17:58;4.00;;;0.90;;
70505;SDS011;58032;49.820;6.274;2023-02-28T10:20:35;3.40;;;0.95;;
70505;SDS011;58032;49.820;6.274;2023-02-28T10:23:12;5.43;;;1.55;;
70505;SDS011;58032;49.820;6.274;2023-02-28T10:25:52;3.88;;;1.48;;
70505;SDS011;58032;49.820;6.274;2023-02-28T10:28:24;4.22;;;1.02;;
70505;SDS011;58032;49.820;6.274;2023-02-28T10:30:52;4.17;;;1.47;;
70505;SDS011;58032;49.820;6.274;2023-02-28T10:35:52;2.70;;;0.98;;
70505;SDS011;58032;49.820;6.274;2023-02-28T10:38:24;2.00;;;0.65;;
70505;SDS011;58032;49.820;6.274;2023-02-28T10:41:04;3.72;;;1.02;;
70505;SDS011;58032;49.820;6.274;2023-02-28T10:43:31;4.80;;;1.67;;
70505;SDS011;58032;49.820;6.274;2023-02-28T10:48:41;3.58;;;1.15;;
70505;SDS011;58032;49.820;6.274;2023-02-28T10:51:12;4.65;;;1.80;;
70505;SDS011;58032;49.820;6.274;2023-02-28T10:53:53;4.85;;;1.48;;
70505;SDS011;58032;49.820;6.274;2023-02-28T10:56:29;3.83;;;1.60;;
70505;SDS011;58032;49.820;6.274;2023-02-28T11:03:57;4.82;;;2.20;;
70505;SDS011;58032;49.820;6.274;2023-02-28T11:06:34;2.90;;;1.15;;
70505;SDS011;58032;49.820;6.274;2023-02-28T11:09:05;2.53;;;1.20;;
70505;SDS011;58032;49.820;6.274;2023-02-28T11:11:44;3.33;;;1.13;;
70505;SDS011;58032;49.820;6.274;2023-02-28T11:14:26;4.57;;;1.80;;
70505;SDS011;58032;49.820;6.274;2023-02-28T11:16:56;5.95;;;3.05;;
70505;SDS011;58032;49.820;6.274;2023-02-28T11:19:31;4.28;;;1.92;;
70505;SDS011;58032;49.820;6.274;2023-02-28T11:22:05;3.97;;;1.63;;
70505;SDS011;58032;49.820;6.274;2023-02-28T11:24:52;5.65;;;2.35;;
70505;SDS011;58032;49.820;6.274;2023-02-28T11:29:58;5.90;;;3.10;;
70505;SDS011;58032;49.820;6.274;2023-02-28T11:32:26;6.57;;;2.20;;
70505;SDS011;58032;49.820;6.274;2023-02-28T11:37:30;3.85;;;1.35;;
70505;SDS011;58032;49.820;6.274;2023-02-28T11:39:58;4.45;;;1.58;;
70505;SDS011;58032;49.820;6.274;2023-02-28T11:45:57;4.80;;;1.88;;
70505;SDS011;58032;49.820;6.274;2023-02-28T11:48:36;4.47;;;1.70;;
70505;SDS011;58032;49.820;6.274;2023-02-28T11:51:28;5.20;;;1.80;;
70505;SDS011;58032;49.820;6.274;2023-02-28T11:54:18;6.60;;;3.25;;
70505;SDS011;58032;49.820;6.274;2023-02-28T11:57:07;5.07;;;2.25;;
70505;SDS011;58032;49.820;6.274;2023-02-28T12:00:07;3.97;;;1.40;;
70505;SDS011;58032;49.820;6.274;2023-02-28T12:03:01;6.30;;;2.80;;
70505;SDS011;58032;49.820;6.274;2023-02-28T12:10:53;4.80;;;2.22;;
70505;SDS011;58032;49.820;6.274;2023-02-28T12:13:37;6.73;;;2.73;;
70505;SDS011;58032;49.820;6.274;2023-02-28T12:16:24;5.60;;;2.60;;
70505;SDS011;58032;49.820;6.274;2023-02-28T12:27:00;4.87;;;2.13;;
70505;SDS011;58032;49.820;6.274;2023-02-28T12:29:33;4.85;;;1.95;;
70505;SDS011;58032;49.820;6.274;2023-02-28T12:32:11;5.07;;;1.98;;
70505;SDS011;58032;49.820;6.274;2023-02-28T12:34:51;5.38;;;2.08;;
70505;SDS011;58032;49.820;6.274;2023-02-28T12:37:43;7.18;;;2.63;;
70505;SDS011;58032;49.820;6.274;2023-02-28T12:40:15;4.83;;;2.03;;
70505;SDS011;58032;49.820;6.274;2023-02-28T12:42:54;5.43;;;2.10;;
70505;SDS011;58032;49.820;6.274;2023-02-28T12:45:33;5.63;;;2.58;;
70505;SDS011;58032;49.820;6.274;2023-02-28T12:48:20;5.22;;;2.17;;
70505;SDS011;58032;49.820;6.274;2023-02-28T12:50:52;5.20;;;2.17;;
70505;SDS011;58032;49.820;6.274;2023-02-28T12:53:25;4.77;;;1.93;;
70505;SDS011;58032;49.820;6.274;2023-02-28T12:56:09;4.05;;;1.35;;
70505;SDS011;58032;49.820;6.274;2023-02-28T12:58:48;4.82;;;1.40;;
70505;SDS011;58032;49.820;6.274;2023-02-28T13:01:30;6.05;;;2.35;;
70505;SDS011;58032;49.820;6.274;2023-02-28T13:07:16;3.83;;;1.50;;
70505;SDS011;58032;49.820;6.274;2023-02-28T13:10:04;5.63;;;2.15;;
70505;SDS011;58032;49.820;6.274;2023-02-28T13:12:34;4.22;;;2.05;;
70505;SDS011;58032;49.820;6.274;2023-02-28T13:15:07;3.83;;;2.05;;
70505;SDS011;58032;49.820;6.274;2023-02-28T13:17:42;5.30;;;1.95;;
70505;SDS011;58032;49.820;6.274;2023-02-28T13:20:19;5.07;;;1.60;;
70505;SDS011;58032;49.820;6.274;2023-02-28T13:22:52;4.55;;;2.08;;
70505;SDS011;58032;49.820;6.274;2023-02-28T13:28:00;3.83;;;1.25;;
70505;SDS011;58032;49.820;6.274;2023-02-28T13:33:31;3.33;;;1.20;;
70505;SDS011;58032;49.820;6.274;2023-02-28T13:38:44;4.13;;;1.92;;
70505;SDS011;58032;49.820;6.274;2023-02-28T13:41:40;5.53;;;2.63;;
70505;SDS011;58032;49.820;6.274;2023-02-28T13:44:09;5.03;;;2.22;;
70505;SDS011;58032;49.820;6.274;2023-02-28T13:52:12;4.47;;;1.95;;
70505;SDS011;58032;49.820;6.274;2023-02-28T14:00:01;4.43;;;2.00;;
70505;SDS011;58032;49.820;6.274;2023-02-28T14:02:40;5.18;;;1.63;;
70505;SDS011;58032;49.820;6.274;2023-02-28T14:05:29;7.57;;;2.80;;
70505;SDS011;58032;49.820;6.274;2023-02-28T14:08:04;5.80;;;2.38;;
70505;SDS011;58032;49.820;6.274;2023-02-28T14:10:37;5.25;;;2.08;;
70505;SDS011;58032;49.820;6.274;2023-02-28T14:15:48;4.10;;;1.95;;
70505;SDS011;58032;49.820;6.274;2023-02-28T14:18:23;4.57;;;1.95;;
70505;SDS011;58032;49.820;6.274;2023-02-28T14:21:23;5.47;;;1.88;;
70505;SDS011;58032;49.820;6.274;2023-02-28T14:23:57;3.95;;;1.80;;
70505;SDS011;58032;49.820;6.274;2023-02-28T14:27:14;5.70;;;1.80;;
70505;SDS011;58032;49.820;6.274;2023-02-28T14:32:21;3.95;;;1.27;;
70505;SDS011;58032;49.820;6.274;2023-02-28T14:35:35;4.28;;;1.33;;
70505;SDS011;58032;49.820;6.274;2023-02-28T14:38:14;6.05;;;2.40;;
70505;SDS011;58032;49.820;6.274;2023-02-28T14:40:47;4.90;;;1.50;;
70505;SDS011;58032;49.820;6.274;2023-02-28T14:43:22;5.03;;;2.28;;
70505;SDS011;58032;49.820;6.274;2023-02-28T14:45:54;4.85;;;2.00;;
70505;SDS011;58032;49.820;6.274;2023-02-28T14:48:23;4.88;;;1.90;;
70505;SDS011;58032;49.820;6.274;2023-02-28T14:50:53;5.57;;;2.10;;
70505;SDS011;58032;49.820;6.274;2023-02-28T14:53:23;5.77;;;2.10;;
70505;SDS011;58032;49.820;6.274;2023-02-28T14:55:53;5.70;;;2.17;;
70505;SDS011;58032;49.820;6.274;2023-02-28T15:00:54;4.10;;;1.80;;
70505;SDS011;58032;49.820;6.274;2023-02-28T15:03:37;6.75;;;3.08;;
70505;SDS011;58032;49.820;6.274;2023-02-28T15:06:11;7.47;;;2.00;;
70505;SDS011;58032;49.820;6.274;2023-02-28T15:08:40;6.63;;;2.58;;
70505;SDS011;58032;49.820;6.274;2023-02-28T15:11:14;8.02;;;2.88;;
70505;SDS011;58032;49.820;6.274;2023-02-28T15:13:48;6.78;;;3.60;;
70505;SDS011;58032;49.820;6.274;2023-02-28T15:16:22;7.22;;;3.10;;
70505;SDS011;58032;49.820;6.274;2023-02-28T15:19:02;6.67;;;3.00;;
70505;SDS011;58032;49.820;6.274;2023-02-28T15:21:34;3.78;;;1.48;;
70505;SDS011;58032;49.820;6.274;2023-02-28T15:26:42;4.40;;;1.77;;
70505;SDS011;58032;49.820;6.274;2023-02-28T15:29:16;5.10;;;1.58;;
70505;SDS011;58032;49.820;6.274;2023-02-28T15:31:51;5.40;;;2.63;;
70505;SDS011;58032;49.820;6.274;2023-02-28T15:34:37;3.75;;;1.70;;
70505;SDS011;58032;49.820;6.274;2023-02-28T15:40:22;4.65;;;1.70;;
70505;SDS011;58032;49.820;6.274;2023-02-28T15:46:05;4.50;;;1.90;;
70505;SDS011;58032;49.820;6.274;2023-02-28T15:48:35;6.95;;;2.45;;
70505;SDS011;58032;49.820;6.274;2023-02-28T15:53:41;6.15;;;2.33;;
70505;SDS011;58032;49.820;6.274;2023-02-28T15:56:44;5.72;;;1.92;;
70505;SDS011;58032;49.820;6.274;2023-02-28T15:59:15;6.13;;;3.20;;
70505;SDS011;58032;49.820;6.274;2023-02-28T16:01:45;4.70;;;2.28;;
70505;SDS011;58032;49.820;6.274;2023-02-28T16:04:16;4.80;;;1.42;;
70505;SDS011;58032;49.820;6.274;2023-02-28T16:06:45;4.80;;;2.35;;
70505;SDS011;58032;49.820;6.274;2023-02-28T16:09:26;4.85;;;1.83;;
70505;SDS011;58032;49.820;6.274;2023-02-28T16:11:54;4.57;;;2.50;;
70505;SDS011;58032;49.820;6.274;2023-02-28T16:14:24;6.55;;;2.40;;
70505;SDS011;58032;49.820;6.274;2023-02-28T16:16:54;8.52;;;2.20;;
70505;SDS011;58032;49.820;6.274;2023-02-28T16:19:22;4.35;;;1.60;;
70505;SDS011;58032;49.820;6.274;2023-02-28T16:21:50;6.05;;;2.35;;
70505;SDS011;58032;49.820;6.274;2023-02-28T16:24:25;6.37;;;2.77;;
70505;SDS011;58032;49.820;6.274;2023-02-28T16:26:57;4.55;;;1.73;;
70505;SDS011;58032;49.820;6.274;2023-02-28T16:29:25;7.60;;;2.83;;
70505;SDS011;58032;49.820;6.274;2023-02-28T16:32:01;6.57;;;1.67;;
70505;SDS011;58032;49.820;6.274;2023-02-28T16:34:36;6.78;;;2.80;;
70505;SDS011;58032;49.820;6.274;2023-02-28T16:37:12;8.07;;;3.10;;
70505;SDS011;58032;49.820;6.274;2023-02-28T16:39:52;5.87;;;2.15;;
70505;SDS011;58032;49.820;6.274;2023-02-28T16:42:31;7.00;;;2.75;;
70505;SDS011;58032;49.820;6.274;2023-02-28T16:45:01;7.45;;;2.05;;
70505;SDS011;58032;49.820;6.274;2023-02-28T16:47:36;3.92;;;1.73;;
70505;SDS011;58032;49.820;6.274;2023-02-28T16:50:08;5.10;;;2.03;;
70505;SDS011;58032;49.820;6.274;2023-02-28T16:52:54;4.15;;;1.48;;
70505;SDS011;58032;49.820;6.274;2023-02-28T16:55:22;7.95;;;2.30;;
70505;SDS011;58032;49.820;6.274;2023-02-28T16:57:53;3.50;;;1.23;;
70505;SDS011;58032;49.820;6.274;2023-02-28T17:00:29;4.13;;;1.60;;
70505;SDS011;58032;49.820;6.274;2023-02-28T17:03:19;5.13;;;1.73;;
70505;SDS011;58032;49.820;6.274;2023-02-28T17:06:29;6.13;;;1.60;;
70505;SDS011;58032;49.820;6.274;2023-02-28T17:09:14;4.07;;;1.55;;
70505;SDS011;58032;49.820;6.274;2023-02-28T17:11:57;5.03;;;1.73;;
70505;SDS011;58032;49.820;6.274;2023-02-28T17:14:36;2.63;;;0.75;;
70505;SDS011;58032;49.820;6.274;2023-02-28T17:17:15;4.37;;;1.80;;
70505;SDS011;58032;49.820;6.274;2023-02-28T17:19:44;3.42;;;1.02;;
70505;SDS011;58032;49.820;6.274;2023-02-28T17:22:11;7.25;;;2.97;;
70505;SDS011;58032;49.820;6.274;2023-02-28T17:24:51;4.60;;;2.05;;
70505;SDS011;58032;49.820;6.274;2023-02-28T17:27:22;4.40;;;1.70;;
70505;SDS011;58032;49.820;6.274;2023-02-28T17:29:48;4.20;;;1.37;;
70505;SDS011;58032;49.820;6.274;2023-02-28T17:32:15;4.50;;;1.52;;
70505;SDS011;58032;49.820;6.274;2023-02-28T17:34:44;3.60;;;1.30;;